createdAt,value
2022-09-11T00:00:52.974Z,56.69
2022-09-11T00:01:55.538Z,56.25
2022-09-11T00:02:57.448Z,56.77
2022-09-11T00:04:00.008Z,56.61
2022-09-11T00:05:01.753Z,56.24
2022-09-11T00:06:07.354Z,56.66
2022-09-11T00:07:09.360Z,56.78
2022-09-11T00:08:16.710Z,56.54
2022-09-11T00:09:18.511Z,56.56
2022-09-11T00:10:20.210Z,56.86
2022-09-11T00:11:22.655Z,56.34
2022-09-11T00:12:24.457Z,56.43
2022-09-11T00:13:26.160Z,56.62
2022-09-11T00:14:29.606Z,56.84
2022-09-11T00:15:36.800Z,56.59
2022-09-11T00:16:42.990Z,56.39
2022-09-11T00:17:44.689Z,56.38
2022-09-11T00:18:46.814Z,56.85
2022-09-11T00:19:48.550Z,56.68
2022-09-11T00:20:57.033Z,56.76
2022-09-11T00:21:58.780Z,56.56
2022-09-11T00:23:04.937Z,56.54
2022-09-11T00:24:09.797Z,56.31
2022-09-11T00:25:11.535Z,56.76
2022-09-11T00:26:13.271Z,56.87
2022-09-11T00:27:15.558Z,56.81
2022-09-11T00:28:21.756Z,56.36
2022-09-11T00:29:23.655Z,56.90
2022-09-11T00:30:25.404Z,56.55
2022-09-11T00:31:30.590Z,56.83
2022-09-11T00:32:33.199Z,56.94
2022-09-11T00:33:36.914Z,56.56
2022-09-11T00:34:39.144Z,56.64
2022-09-11T00:35:41.947Z,56.71
2022-09-11T00:36:44.145Z,56.49
2022-09-11T00:37:45.865Z,56.90
2022-09-11T00:38:49.331Z,56.65
2022-09-11T00:39:54.436Z,56.60
2022-09-11T00:40:59.971Z,56.99
2022-09-11T00:42:02.299Z,56.55
2022-09-11T00:43:09.897Z,56.76
2022-09-11T00:44:16.780Z,56.48
2022-09-11T00:45:28.350Z,56.36
2022-09-11T00:46:55.888Z,56.21
2022-09-11T00:48:00.042Z,56.53
2022-09-11T00:49:14.422Z,56.42
2022-09-11T00:50:22.205Z,56.51
2022-09-11T00:51:29.415Z,56.45
2022-09-11T00:52:38.748Z,56.88
2022-09-11T00:53:40.680Z,56.99
2022-09-11T00:55:08.813Z,56.96
2022-09-11T00:56:11.507Z,56.71
2022-09-11T00:57:13.687Z,56.37
2022-09-11T00:58:21.973Z,56.60
2022-09-11T00:59:26.912Z,57.09
2022-09-11T01:00:29.084Z,56.83
2022-09-11T01:01:31.066Z,56.92
2022-09-11T01:02:37.041Z,57.02
2022-09-11T01:03:38.839Z,56.43
2022-09-11T01:04:40.612Z,56.60
2022-09-11T01:05:43.649Z,57.06
2022-09-11T01:06:46.648Z,56.87
2022-09-11T01:07:54.168Z,56.52
2022-09-11T01:08:55.884Z,56.99
2022-09-11T01:09:59.170Z,56.88
2022-09-11T01:11:39.980Z,56.35
2022-09-11T01:13:12.451Z,56.68
2022-09-11T01:14:32.422Z,56.90
2022-09-11T01:15:57.193Z,56.62
2022-09-11T01:18:02.162Z,56.29
2022-09-11T01:19:34.270Z,56.25
2022-09-11T01:21:05.968Z,56.31
2022-09-11T01:22:51.640Z,56.78
2022-09-11T01:24:45.599Z,56.13
2022-09-11T01:26:18.846Z,56.63
2022-09-11T01:27:52.020Z,56.57
2022-09-11T01:29:09.537Z,56.96
2022-09-11T01:30:13.159Z,56.50
2022-09-11T01:31:22.596Z,57.14
2022-09-11T01:32:41.334Z,56.44
2022-09-11T01:33:55.044Z,56.79
2022-09-11T01:35:33.858Z,56.78
2022-09-11T01:36:53.657Z,56.84
2022-09-11T01:38:03.890Z,56.65
2022-09-11T01:39:05.786Z,56.65
2022-09-11T01:40:24.114Z,57.04
2022-09-11T01:41:44.879Z,56.66
2022-09-11T01:42:54.393Z,56.52
2022-09-11T01:44:18.557Z,57.34
2022-09-11T01:45:24.165Z,56.78
2022-09-11T01:46:28.611Z,57.02
2022-09-11T01:47:34.895Z,56.76
2022-09-11T01:48:48.598Z,56.79
2022-09-11T01:50:07.138Z,56.61
2022-09-11T01:51:16.298Z,57.28
2022-09-11T01:52:32.056Z,57.13
2022-09-11T01:53:45.881Z,56.61
2022-09-11T01:54:59.731Z,56.95
2022-09-11T01:56:20.760Z,56.94
2022-09-11T01:57:36.985Z,57.15
2022-09-11T01:58:42.003Z,57.01
2022-09-11T01:59:53.043Z,56.78
2022-09-11T02:01:04.534Z,56.73
2022-09-11T02:02:11.871Z,56.70
2022-09-11T02:03:39.486Z,56.61
2022-09-11T02:05:01.217Z,56.93
2022-09-11T02:06:14.447Z,57.08
2022-09-11T02:07:24.919Z,56.88
2022-09-11T02:08:32.923Z,57.18
2022-09-11T02:09:46.836Z,56.97
2022-09-11T02:11:07.097Z,57.37
2022-09-11T02:12:15.983Z,57.00
2022-09-11T02:14:21.143Z,57.19
2022-09-11T02:15:33.279Z,57.16
2022-09-11T02:16:53.410Z,57.42
2022-09-11T02:18:06.181Z,56.89
2022-09-11T02:19:16.966Z,57.30
2022-09-11T02:20:20.899Z,56.97
2022-09-11T02:21:22.818Z,56.79
2022-09-11T02:22:25.051Z,56.96
2022-09-11T02:23:26.765Z,57.02
2022-09-11T02:24:28.902Z,57.06
2022-09-11T02:25:30.611Z,57.38
2022-09-11T02:26:39.721Z,57.61
2022-09-11T02:27:41.651Z,57.24
2022-09-11T02:28:43.525Z,57.51
2022-09-11T02:29:45.801Z,57.51
2022-09-11T02:30:47.875Z,57.19
2022-09-11T02:31:52.071Z,56.99
2022-09-11T02:32:55.955Z,57.08
2022-09-11T02:33:58.052Z,57.10
2022-09-11T02:35:00.804Z,57.15
2022-09-11T02:36:17.045Z,57.31
2022-09-11T02:38:05.235Z,57.29
2022-09-11T02:39:40.032Z,57.30
2022-09-11T02:41:13.767Z,57.10
2022-09-11T02:42:47.720Z,57.55
2022-09-11T02:44:06.915Z,56.96
2022-09-11T02:45:30.422Z,56.94
2022-09-11T02:47:26.083Z,57.48
2022-09-11T02:48:39.408Z,57.13
2022-09-11T02:50:07.592Z,57.47
2022-09-11T02:51:36.917Z,57.07
2022-09-11T02:52:52.796Z,57.12
2022-09-11T02:54:29.044Z,57.04
2022-09-11T02:55:52.169Z,57.40
2022-09-11T02:57:17.834Z,57.23
2022-09-11T02:58:21.820Z,57.13
2022-09-11T02:59:40.719Z,57.73
2022-09-11T03:00:42.672Z,57.54
2022-09-11T03:01:55.030Z,57.83
2022-09-11T03:02:57.541Z,57.18
2022-09-11T03:03:59.304Z,57.36
2022-09-11T03:05:01.436Z,57.76
2022-09-11T03:06:03.504Z,57.54
2022-09-11T03:07:05.890Z,57.46
2022-09-11T03:08:08.095Z,57.37
2022-09-11T03:09:10.644Z,57.71
2022-09-11T03:10:12.417Z,57.94
2022-09-11T03:11:17.693Z,57.58
2022-09-11T03:12:19.484Z,57.57
2022-09-11T03:13:21.216Z,57.32
2022-09-11T03:14:22.955Z,57.82
2022-09-11T03:15:24.659Z,57.34
2022-09-11T03:16:26.437Z,57.56
2022-09-11T03:17:28.438Z,57.88
2022-09-11T03:18:30.654Z,57.80
2022-09-11T03:19:32.412Z,57.72
2022-09-11T03:20:34.114Z,57.50
2022-09-11T03:21:36.838Z,57.64
2022-09-11T03:22:39.671Z,57.76
2022-09-11T03:23:41.420Z,57.77
2022-09-11T03:24:43.269Z,57.85
2022-09-11T03:25:44.977Z,57.31
2022-09-11T03:26:46.788Z,57.92
2022-09-11T03:27:48.513Z,57.39
2022-09-11T03:28:50.466Z,57.89
2022-09-11T03:29:52.210Z,57.69
2022-09-11T03:30:53.995Z,57.83
2022-09-11T03:31:57.277Z,57.77
2022-09-11T03:33:00.571Z,57.72
2022-09-11T03:34:02.297Z,57.83
2022-09-11T03:35:04.288Z,57.91
2022-09-11T03:36:06.786Z,57.89
2022-09-11T03:37:08.507Z,57.42
2022-09-11T03:38:11.833Z,58.05
2022-09-11T03:39:13.533Z,57.73
2022-09-11T03:40:15.327Z,57.61
2022-09-11T03:41:17.091Z,57.71
2022-09-11T03:42:18.787Z,57.28
2022-09-11T03:43:21.173Z,58.11
2022-09-11T03:44:23.054Z,57.83
2022-09-11T03:45:24.943Z,58.15
2022-09-11T03:46:27.785Z,57.85
2022-09-11T03:47:29.643Z,57.84
2022-09-11T03:48:32.634Z,57.68
2022-09-11T03:49:34.365Z,57.59
2022-09-11T03:50:36.068Z,57.65
2022-09-11T03:51:37.834Z,57.83
2022-09-11T03:52:39.861Z,57.78
2022-09-11T03:53:43.041Z,57.98
2022-09-11T03:54:44.860Z,57.91
2022-09-11T03:55:49.957Z,57.51
2022-09-11T03:56:51.665Z,57.81
2022-09-11T03:57:53.372Z,57.99
2022-09-11T03:59:02.528Z,57.53
2022-09-11T04:00:05.689Z,58.05
2022-09-11T04:01:16.204Z,57.59
2022-09-11T04:02:18.837Z,57.43
2022-09-11T04:03:20.588Z,57.67
2022-09-11T04:04:22.684Z,58.08
2022-09-11T04:05:25.286Z,58.00
2022-09-11T04:06:27.344Z,57.30
2022-09-11T04:07:31.433Z,57.82
2022-09-11T04:08:33.852Z,57.45
2022-09-11T04:09:35.845Z,57.98
2022-09-11T04:10:38.194Z,57.86
2022-09-11T04:11:40.279Z,57.31
2022-09-11T04:12:41.968Z,57.59
2022-09-11T04:13:44.662Z,57.51
2022-09-11T04:14:46.350Z,57.78
2022-09-11T04:15:48.092Z,57.89
2022-09-11T04:16:49.969Z,57.65
2022-09-11T04:17:51.713Z,57.46
2022-09-11T04:18:54.198Z,57.84
2022-09-11T04:19:55.960Z,57.34
2022-09-11T04:20:58.364Z,57.73
2022-09-11T04:22:00.214Z,57.85
2022-09-11T04:23:02.856Z,57.82
2022-09-11T04:24:05.180Z,57.66
2022-09-11T04:25:07.705Z,57.63
2022-09-11T04:26:16.532Z,57.38
2022-09-11T04:27:18.956Z,57.50
2022-09-11T04:28:20.771Z,57.45
2022-09-11T04:29:22.505Z,57.88
2022-09-11T04:30:24.261Z,57.21
2022-09-11T04:31:30.333Z,58.00
2022-09-11T04:32:32.164Z,57.94
2022-09-11T04:33:36.163Z,57.77
2022-09-11T04:34:37.985Z,57.96
2022-09-11T04:35:40.316Z,57.40
2022-09-11T04:36:42.065Z,57.77
2022-09-11T04:37:43.766Z,57.41
2022-09-11T04:38:47.687Z,57.18
2022-09-11T04:39:49.432Z,57.26
2022-09-11T04:40:51.518Z,57.35
2022-09-11T04:41:54.398Z,57.85
2022-09-11T04:42:56.085Z,57.30
2022-09-11T04:44:04.880Z,57.55
2022-09-11T04:45:07.870Z,57.30
2022-09-11T04:46:17.764Z,57.46
2022-09-11T04:47:19.449Z,57.61
2022-09-11T04:48:21.141Z,57.73
2022-09-11T04:49:25.954Z,57.19
2022-09-11T04:50:29.116Z,57.70
2022-09-11T04:51:36.417Z,57.38
2022-09-11T04:52:39.146Z,57.25
2022-09-11T04:53:41.866Z,57.13
2022-09-11T04:54:43.921Z,57.61
2022-09-11T04:55:45.962Z,57.35
2022-09-11T04:56:48.806Z,57.46
2022-09-11T04:57:50.581Z,57.61
2022-09-11T04:59:13.166Z,56.97
2022-09-11T05:00:16.001Z,57.32
2022-09-11T05:01:17.847Z,57.63
2022-09-11T05:02:19.921Z,57.15
2022-09-11T05:03:21.676Z,57.45
2022-09-11T05:04:26.179Z,57.36
2022-09-11T05:05:28.303Z,57.00
2022-09-11T05:06:30.360Z,57.10
2022-09-11T05:07:32.288Z,57.49
2022-09-11T05:08:34.555Z,57.57
2022-09-11T05:09:36.281Z,57.62
2022-09-11T05:10:38.850Z,57.72
2022-09-11T05:11:40.954Z,57.49
2022-09-11T05:12:42.639Z,57.00
2022-09-11T05:13:45.023Z,57.43
2022-09-11T05:14:46.985Z,57.11
2022-09-11T05:15:48.674Z,57.17
2022-09-11T05:16:52.515Z,57.01
2022-09-11T05:17:54.195Z,57.48
2022-09-11T05:18:57.651Z,57.15
2022-09-11T05:19:59.352Z,57.23
2022-09-11T05:21:03.353Z,56.87
2022-09-11T05:22:05.106Z,57.49
2022-09-11T05:23:07.304Z,57.28
2022-09-11T05:24:09.073Z,57.00
2022-09-11T05:25:11.496Z,57.67
2022-09-11T05:26:19.296Z,57.37
2022-09-11T05:27:21.031Z,56.94
2022-09-11T05:28:22.769Z,57.00
2022-09-11T05:29:32.217Z,57.29
2022-09-11T05:30:34.520Z,56.90
2022-09-11T05:31:37.215Z,57.11
2022-09-11T05:32:39.082Z,57.08
2022-09-11T05:33:41.439Z,57.65
2022-09-11T05:34:43.577Z,57.44
2022-09-11T05:35:46.567Z,57.54
2022-09-11T05:36:48.617Z,56.76
2022-09-11T05:37:50.430Z,57.25
2022-09-11T05:38:52.874Z,57.61
2022-09-11T05:39:54.857Z,57.34
2022-09-11T05:40:56.660Z,57.00
2022-09-11T05:41:58.471Z,56.88
2022-09-11T05:43:00.165Z,57.06
2022-09-11T05:44:02.263Z,57.25
2022-09-11T05:45:04.825Z,56.76
2022-09-11T05:46:11.151Z,56.86
2022-09-11T05:47:14.199Z,57.25
2022-09-11T05:48:16.396Z,56.69
2022-09-11T05:49:19.311Z,56.92
2022-09-11T05:50:21.649Z,56.77
2022-09-11T05:51:23.770Z,56.71
2022-09-11T05:52:25.620Z,57.18
2022-09-11T05:53:32.026Z,56.85
2022-09-11T05:54:33.872Z,57.07
2022-09-11T05:55:35.608Z,57.17
2022-09-11T05:56:37.311Z,56.88
2022-09-11T05:57:39.016Z,56.72
2022-09-11T05:58:40.806Z,57.23
2022-09-11T05:59:42.573Z,56.91
2022-09-11T06:00:48.495Z,56.76
2022-09-11T06:01:50.384Z,56.97
2022-09-11T06:02:54.613Z,57.14
2022-09-11T06:03:57.899Z,57.10
2022-09-11T06:04:59.737Z,56.88
2022-09-11T06:06:03.558Z,57.05
2022-09-11T06:07:05.353Z,56.72
2022-09-11T06:08:11.768Z,56.89
2022-09-11T06:09:13.962Z,56.91
2022-09-11T06:10:15.759Z,57.14
2022-09-11T06:11:20.155Z,56.76
2022-09-11T06:12:21.895Z,56.63
2022-09-11T06:13:26.407Z,57.08
2022-09-11T06:14:28.133Z,56.70
2022-09-11T06:15:46.256Z,56.89
2022-09-11T06:16:48.853Z,57.04
2022-09-11T06:17:50.665Z,57.26
2022-09-11T06:18:54.285Z,56.61
2022-09-11T06:19:56.067Z,57.35
2022-09-11T06:21:01.460Z,56.84
2022-09-11T06:22:03.191Z,57.28
2022-09-11T06:23:09.069Z,57.11
2022-09-11T06:24:11.048Z,56.72
2022-09-11T06:25:12.885Z,57.05
2022-09-11T06:26:18.255Z,57.04
2022-09-11T06:27:20.075Z,56.71
2022-09-11T06:28:23.400Z,56.73
2022-09-11T06:29:25.159Z,56.91
2022-09-11T06:30:27.084Z,56.62
2022-09-11T06:31:29.854Z,57.00
2022-09-11T06:32:31.543Z,56.66
2022-09-11T06:33:36.124Z,57.28
2022-09-11T06:34:37.893Z,57.20
2022-09-11T06:35:39.584Z,56.90
2022-09-11T06:36:41.317Z,56.64
2022-09-11T06:37:43.050Z,57.16
2022-09-11T06:38:46.010Z,56.92
2022-09-11T06:39:47.820Z,57.01
2022-09-11T06:40:50.332Z,56.41
2022-09-11T06:41:53.844Z,56.74
2022-09-11T06:42:55.542Z,57.09
2022-09-11T06:43:57.257Z,56.93
2022-09-11T06:44:58.991Z,57.00
2022-09-11T06:46:12.020Z,56.75
2022-09-11T06:47:13.817Z,56.59
2022-09-11T06:48:17.084Z,56.77
2022-09-11T06:49:19.539Z,56.86
2022-09-11T06:50:23.393Z,56.81
2022-09-11T06:51:25.353Z,56.91
2022-09-11T06:52:28.110Z,56.79
2022-09-11T06:53:30.325Z,56.64
2022-09-11T06:54:32.091Z,56.40
2022-09-11T06:55:34.595Z,56.69
2022-09-11T06:56:36.337Z,56.37
2022-09-11T06:57:41.782Z,56.72
2022-09-11T06:58:45.249Z,56.04
2022-09-11T06:59:47.147Z,56.31
2022-09-11T07:00:49.147Z,56.52
2022-09-11T07:01:51.870Z,56.04
2022-09-11T07:02:54.331Z,56.54
2022-09-11T07:03:56.814Z,56.17
2022-09-11T07:04:58.597Z,56.03
2022-09-11T07:06:01.012Z,56.38
2022-09-11T07:07:02.768Z,56.22
2022-09-11T07:08:05.393Z,56.05
2022-09-11T07:09:07.147Z,56.68
2022-09-11T07:10:10.349Z,56.44
2022-09-11T07:11:12.738Z,56.02
2022-09-11T07:12:14.805Z,56.03
2022-09-11T07:13:16.614Z,56.43
2022-09-11T07:14:21.226Z,56.15
2022-09-11T07:15:23.003Z,55.94
2022-09-11T07:16:25.732Z,56.11
2022-09-11T07:17:27.484Z,56.42
2022-09-11T07:18:44.561Z,55.76
2022-09-11T07:19:46.281Z,56.06
2022-09-11T07:20:48.002Z,56.13
2022-09-11T07:21:49.728Z,55.60
2022-09-11T07:22:51.460Z,56.30
2022-09-11T07:23:57.539Z,55.75
2022-09-11T07:25:03.627Z,55.77
2022-09-11T07:26:12.197Z,55.88
2022-09-11T07:27:14.212Z,56.05
2022-09-11T07:28:15.964Z,56.07
2022-09-11T07:29:18.340Z,55.77
2022-09-11T07:30:20.430Z,55.59
2022-09-11T07:31:29.603Z,55.67
2022-09-11T07:32:31.334Z,55.53
2022-09-11T07:33:33.319Z,55.81
2022-09-11T07:34:35.091Z,55.92
2022-09-11T07:35:38.009Z,55.75
2022-09-11T07:36:39.771Z,55.65
2022-09-11T07:37:41.495Z,55.56
2022-09-11T07:38:49.540Z,55.90
2022-09-11T07:39:51.272Z,55.54
2022-09-11T07:40:56.930Z,55.53
2022-09-11T07:41:58.708Z,55.77
2022-09-11T07:43:00.446Z,55.57
2022-09-11T07:44:03.631Z,55.77
2022-09-11T07:45:06.252Z,55.74
2022-09-11T07:46:10.197Z,55.85
2022-09-11T07:47:12.021Z,55.83
2022-09-11T07:48:13.713Z,55.72
2022-09-11T07:49:15.871Z,55.53
2022-09-11T07:50:18.001Z,55.61
2022-09-11T07:51:20.114Z,55.41
2022-09-11T07:52:21.813Z,55.65
2022-09-11T07:53:25.590Z,55.34
2022-09-11T07:54:28.957Z,55.35
2022-09-11T07:55:30.904Z,55.53
2022-09-11T07:56:34.749Z,55.13
2022-09-11T07:57:36.465Z,55.37
2022-09-11T07:58:40.997Z,55.34
2022-09-11T07:59:42.725Z,55.11
2022-09-11T08:00:45.133Z,55.15
2022-09-11T08:01:46.851Z,54.93
2022-09-11T08:02:49.362Z,54.83
2022-09-11T08:04:01.037Z,54.57
2022-09-11T08:05:02.784Z,54.74
2022-09-11T08:06:09.478Z,54.87
2022-09-11T08:07:11.698Z,54.61
2022-09-11T08:08:13.430Z,54.30
2022-09-11T08:09:15.542Z,54.17
2022-09-11T08:10:27.263Z,54.01
2022-09-11T08:11:31.725Z,53.95
2022-09-11T08:12:34.609Z,54.00
2022-09-11T08:13:36.818Z,53.86
2022-09-11T08:14:38.653Z,53.89
2022-09-11T08:15:50.730Z,53.47
2022-09-11T08:16:53.497Z,53.87
2022-09-11T08:17:55.265Z,53.52
2022-09-11T08:18:57.185Z,53.36
2022-09-11T08:19:58.922Z,53.20
2022-09-11T08:21:12.709Z,53.16
2022-09-11T08:22:14.862Z,53.12
2022-09-11T08:23:16.899Z,53.00
2022-09-11T08:24:24.321Z,52.92
2022-09-11T08:25:27.550Z,52.87
2022-09-11T08:26:30.837Z,52.69
2022-09-11T08:27:32.564Z,52.53
2022-09-11T08:28:36.991Z,52.49
2022-09-11T08:29:38.726Z,52.31
2022-09-11T08:30:40.452Z,52.23
2022-09-11T08:31:42.256Z,52.21
2022-09-11T08:32:44.000Z,52.25
2022-09-11T08:33:46.144Z,51.92
2022-09-11T08:34:48.054Z,52.15
2022-09-11T08:35:49.797Z,52.08
2022-09-11T08:36:51.945Z,51.84
2022-09-11T08:37:55.173Z,51.85
2022-09-11T08:39:02.734Z,51.91
2022-09-11T08:40:05.356Z,51.83
2022-09-11T08:41:30.551Z,51.38
2022-09-11T08:42:32.294Z,51.32
2022-09-11T08:43:39.332Z,51.39
2022-09-11T08:44:53.286Z,51.39
2022-09-11T08:46:00.909Z,51.37
2022-09-11T08:47:24.862Z,51.26
2022-09-11T08:48:40.211Z,51.04
2022-09-11T08:49:47.069Z,50.98
2022-09-11T08:50:49.479Z,51.11
2022-09-11T08:52:02.137Z,50.78
2022-09-11T08:53:04.446Z,50.83
2022-09-11T08:54:07.533Z,51.01
2022-09-11T08:55:14.756Z,50.81
2022-09-11T08:56:22.623Z,50.79
2022-09-11T08:57:43.321Z,50.50
2022-09-11T08:59:02.436Z,50.55
2022-09-11T09:00:24.949Z,50.38
2022-09-11T09:01:53.078Z,50.35
2022-09-11T09:03:47.535Z,49.97
2022-09-11T09:05:31.469Z,49.82
2022-09-11T09:06:55.244Z,49.96
2022-09-11T09:08:18.134Z,49.98
2022-09-11T09:10:03.479Z,49.89
2022-09-11T09:11:33.745Z,49.68
2022-09-11T09:13:29.438Z,49.83
2022-09-11T09:15:02.123Z,49.78
2022-09-11T09:16:43.949Z,49.65
2022-09-11T09:18:00.586Z,50.07
2022-09-11T09:19:10.027Z,49.85
2022-09-11T09:20:22.553Z,49.65
2022-09-11T09:21:36.003Z,49.67
2022-09-11T09:23:25.751Z,49.24
2022-09-11T09:24:36.147Z,49.66
2022-09-11T09:25:42.853Z,49.54
2022-09-11T09:26:51.153Z,49.23
2022-09-11T09:28:17.379Z,49.12
2022-09-11T09:29:30.431Z,49.13
2022-09-11T09:30:50.970Z,48.75
2022-09-11T09:32:01.930Z,48.82
2022-09-11T09:33:34.596Z,48.73
2022-09-11T09:34:40.911Z,48.43
2022-09-11T09:35:45.146Z,48.32
2022-09-11T09:37:16.035Z,48.11
2022-09-11T09:38:26.407Z,48.04
2022-09-11T09:39:29.335Z,48.45
2022-09-11T09:40:35.600Z,47.97
2022-09-11T09:42:16.129Z,47.94
2022-09-11T09:44:01.220Z,47.33
2022-09-11T09:45:37.860Z,47.16
2022-09-11T09:46:51.187Z,47.53
2022-09-11T09:47:53.575Z,47.28
2022-09-11T09:48:56.056Z,47.14
2022-09-11T09:49:58.738Z,47.30
2022-09-11T09:51:03.986Z,47.03
2022-09-11T09:52:32.181Z,46.80
2022-09-11T09:53:49.624Z,47.08
2022-09-11T09:55:05.121Z,47.15
2022-09-11T09:56:07.712Z,46.93
2022-09-11T09:57:11.755Z,46.84
2022-09-11T09:58:15.070Z,46.76
2022-09-11T09:59:26.543Z,46.72
2022-09-11T10:00:30.933Z,46.54
2022-09-11T10:01:45.901Z,46.38
2022-09-11T10:02:57.182Z,46.12
2022-09-11T10:04:31.555Z,46.36
2022-09-11T10:05:54.573Z,46.28
2022-09-11T10:07:14.130Z,45.72
2022-09-11T10:08:37.225Z,45.53
2022-09-11T10:09:49.805Z,45.30
2022-09-11T10:11:04.717Z,45.41
2022-09-11T10:12:16.434Z,45.15
2022-09-11T10:13:24.989Z,44.92
2022-09-11T10:14:49.723Z,45.15
2022-09-11T10:15:50.321Z,44.90
2022-09-11T10:16:53.769Z,44.77
2022-09-11T10:18:37.582Z,44.79
2022-09-11T10:19:43.369Z,44.49
2022-09-11T10:20:45.658Z,44.11
2022-09-11T10:21:47.369Z,43.99
2022-09-11T10:22:50.990Z,43.80
2022-09-11T10:24:02.723Z,43.70
2022-09-11T10:25:09.256Z,43.73
2022-09-11T10:26:45.967Z,43.45
2022-09-11T10:28:17.340Z,42.90
2022-09-11T10:29:26.371Z,42.89
2022-09-11T10:30:41.569Z,42.79
2022-09-11T10:31:51.358Z,42.75
2022-09-11T10:32:53.343Z,42.48
2022-09-11T10:33:59.611Z,42.47
2022-09-11T10:35:08.667Z,42.27
2022-09-11T10:36:11.915Z,42.16
2022-09-11T10:37:16.229Z,41.91
2022-09-11T10:38:20.068Z,42.29
2022-09-11T10:39:25.938Z,41.52
2022-09-11T10:40:27.672Z,41.36
2022-09-11T10:41:34.708Z,41.20
2022-09-11T10:42:37.866Z,41.34
2022-09-11T10:44:03.137Z,41.29
2022-09-11T10:45:16.866Z,41.30
2022-09-11T10:46:29.648Z,40.72
2022-09-11T10:47:33.120Z,40.75
2022-09-11T10:48:36.663Z,40.45
2022-09-11T10:49:38.458Z,40.49
2022-09-11T10:50:40.229Z,40.46
2022-09-11T10:51:57.317Z,40.21
2022-09-11T10:53:20.100Z,40.35
2022-09-11T10:55:00.610Z,40.20
2022-09-11T10:56:05.915Z,39.87
2022-09-11T10:57:42.134Z,39.81
2022-09-11T10:58:54.924Z,39.68
2022-09-11T11:00:23.477Z,39.74
2022-09-11T11:01:26.127Z,39.60
2022-09-11T11:02:36.118Z,39.53
2022-09-11T11:03:38.173Z,40.24
2022-09-11T11:04:40.005Z,39.63
2022-09-11T11:06:34.901Z,39.69
2022-09-11T11:08:02.111Z,40.06
2022-09-11T11:09:39.101Z,39.75
2022-09-11T11:11:05.240Z,40.12
2022-09-11T11:12:33.025Z,39.77
2022-09-11T11:14:14.433Z,39.57
2022-09-11T11:16:04.054Z,39.91
2022-09-11T11:17:43.320Z,39.46
2022-09-11T11:19:11.938Z,39.59
2022-09-11T11:20:47.461Z,39.61
2022-09-11T11:22:23.983Z,39.35
2022-09-11T11:23:56.677Z,39.24
2022-09-11T11:25:27.432Z,38.99
2022-09-11T11:26:59.552Z,39.05
2022-09-11T11:28:29.295Z,38.93
2022-09-11T11:30:00.482Z,38.60
2022-09-11T11:31:34.176Z,38.12
2022-09-11T11:33:09.311Z,38.21
2022-09-11T11:34:46.877Z,38.23
2022-09-11T11:36:04.078Z,38.18
2022-09-11T11:37:23.087Z,38.28
2022-09-11T11:38:40.984Z,37.78
2022-09-11T11:40:18.627Z,37.91
2022-09-11T11:41:32.173Z,37.58
2022-09-11T11:42:53.990Z,37.84
2022-09-11T11:44:03.303Z,38.42
2022-09-11T11:45:32.257Z,37.85
2022-09-11T11:46:45.937Z,37.81
2022-09-11T11:47:51.327Z,38.22
2022-09-11T11:49:04.634Z,38.24
2022-09-11T11:50:27.422Z,38.12
2022-09-11T11:51:47.427Z,38.18
2022-09-11T11:53:31.730Z,38.09
2022-09-11T11:54:52.300Z,38.25
2022-09-11T11:56:15.963Z,37.89
2022-09-11T11:57:26.072Z,38.30
2022-09-11T11:58:47.156Z,38.42
2022-09-11T12:00:09.684Z,38.45
2022-09-11T12:01:38.398Z,38.22
2022-09-11T12:03:01.950Z,38.60
2022-09-11T12:04:59.182Z,38.29
2022-09-11T12:06:01.019Z,38.92
2022-09-11T12:07:04.691Z,38.94
2022-09-11T12:08:16.588Z,38.90
2022-09-11T12:09:19.082Z,38.90
2022-09-11T12:10:36.164Z,39.10
2022-09-11T12:11:39.149Z,39.51
2022-09-11T12:12:53.492Z,39.45
2022-09-11T12:13:56.028Z,39.28
2022-09-11T12:15:07.842Z,39.47
2022-09-11T12:16:29.062Z,39.74
2022-09-11T12:17:34.769Z,40.05
2022-09-11T12:18:38.369Z,40.15
2022-09-11T12:20:12.176Z,40.28
2022-09-11T12:21:22.763Z,40.49
2022-09-11T12:22:38.247Z,40.74
2022-09-11T12:23:47.143Z,40.95
2022-09-11T12:24:52.434Z,41.05
2022-09-11T12:26:10.523Z,41.00
2022-09-11T12:27:33.258Z,41.23
2022-09-11T12:28:35.717Z,41.35
2022-09-11T12:29:42.442Z,41.39
2022-09-11T12:31:11.285Z,41.49
2022-09-11T12:32:16.386Z,41.59
2022-09-11T12:33:43.403Z,41.54
2022-09-11T12:34:45.267Z,41.70
2022-09-11T12:35:53.423Z,41.69
2022-09-11T12:37:12.091Z,41.75
2022-09-11T12:38:37.958Z,41.73
2022-09-11T12:39:53.079Z,41.83
2022-09-11T12:41:07.425Z,41.89
2022-09-11T12:42:25.232Z,41.45
2022-09-11T12:43:37.810Z,41.54
2022-09-11T12:44:48.632Z,41.21
2022-09-11T12:45:50.448Z,41.12
2022-09-11T12:46:54.921Z,41.00
2022-09-11T12:48:25.894Z,40.87
2022-09-11T12:49:28.087Z,40.71
2022-09-11T12:50:30.014Z,40.67
2022-09-11T12:51:38.044Z,40.65
2022-09-11T12:52:45.645Z,40.39
2022-09-11T12:53:52.020Z,40.28
2022-09-11T12:54:54.466Z,40.46
2022-09-11T12:56:07.386Z,40.07
2022-09-11T12:57:27.748Z,40.01
2022-09-11T12:58:41.829Z,39.81
2022-09-11T12:59:53.187Z,39.98
2022-09-11T13:01:30.752Z,39.58
2022-09-11T13:02:44.459Z,39.41
2022-09-11T13:04:27.349Z,39.55
2022-09-11T13:05:38.008Z,39.52
2022-09-11T13:06:54.655Z,39.24
2022-09-11T13:08:03.624Z,39.33
2022-09-11T13:09:07.458Z,39.10
2022-09-11T13:10:33.349Z,39.22
2022-09-11T13:11:45.435Z,38.97
2022-09-11T13:12:55.728Z,39.03
2022-09-11T13:13:57.496Z,38.58
2022-09-11T13:15:00.096Z,38.48
2022-09-11T13:16:25.907Z,38.61
2022-09-11T13:17:46.645Z,38.73
2022-09-11T13:18:48.486Z,38.19
2022-09-11T13:19:50.839Z,38.18
2022-09-11T13:21:00.546Z,38.40
2022-09-11T13:22:19.702Z,38.61
2022-09-11T13:23:21.562Z,38.30
2022-09-11T13:24:28.609Z,38.07
2022-09-11T13:25:32.630Z,38.39
2022-09-11T13:26:35.057Z,38.36
2022-09-11T13:27:39.427Z,37.96
2022-09-11T13:28:49.262Z,37.89
2022-09-11T13:29:54.872Z,38.00
2022-09-11T13:31:04.980Z,37.55
2022-09-11T13:32:13.831Z,37.57
2022-09-11T13:33:23.931Z,37.60
2022-09-11T13:34:29.514Z,37.52
2022-09-11T13:35:32.421Z,37.33
2022-09-11T13:36:36.408Z,37.46
2022-09-11T13:37:57.040Z,37.00
2022-09-11T13:39:02.804Z,37.44
2022-09-11T13:40:14.530Z,36.89
2022-09-11T13:41:28.842Z,37.00
2022-09-11T13:42:31.844Z,37.41
2022-09-11T13:43:49.785Z,37.22
2022-09-11T13:44:59.402Z,36.99
2022-09-11T13:46:16.229Z,36.80
2022-09-11T13:47:31.330Z,36.91
2022-09-11T13:48:33.051Z,37.11
2022-09-11T13:49:38.932Z,36.84
2022-09-11T13:50:40.899Z,36.97
2022-09-11T13:51:47.859Z,37.00
2022-09-11T13:52:53.275Z,37.19
2022-09-11T13:54:14.723Z,36.86
2022-09-11T13:55:23.484Z,36.70
2022-09-11T13:56:56.168Z,36.83
2022-09-11T13:58:03.677Z,36.82
2022-09-11T13:59:38.233Z,37.14
2022-09-11T14:00:45.210Z,36.99
2022-09-11T14:02:00.758Z,37.05
2022-09-11T14:03:02.738Z,37.09
2022-09-11T14:04:05.252Z,37.25
2022-09-11T14:05:09.956Z,37.32
2022-09-11T14:06:18.902Z,37.32
2022-09-11T14:07:26.623Z,37.08
2022-09-11T14:08:34.203Z,37.20
2022-09-11T14:09:36.061Z,37.29
2022-09-11T14:10:43.549Z,37.33
2022-09-11T14:11:45.583Z,37.63
2022-09-11T14:13:16.784Z,37.55
2022-09-11T14:14:28.674Z,37.61
2022-09-11T14:15:48.913Z,37.72
2022-09-11T14:16:57.951Z,37.91
2022-09-11T14:18:04.868Z,38.02
2022-09-11T14:19:15.762Z,37.98
2022-09-11T14:20:24.415Z,38.04
2022-09-11T14:21:36.516Z,38.15
2022-09-11T14:22:38.272Z,38.12
2022-09-11T14:24:27.066Z,38.12
2022-09-11T14:25:28.949Z,38.14
2022-09-11T14:26:30.589Z,38.44
2022-09-11T14:27:32.730Z,38.41
2022-09-11T14:28:48.635Z,38.51
2022-09-11T14:29:55.441Z,38.59
2022-09-11T14:31:10.888Z,38.76
2022-09-11T14:32:39.990Z,38.74
2022-09-11T14:33:41.922Z,38.70
2022-09-11T14:34:43.772Z,38.93
2022-09-11T14:35:48.251Z,39.01
2022-09-11T14:37:07.850Z,39.03
2022-09-11T14:38:14.039Z,38.97
2022-09-11T14:39:32.990Z,39.19
2022-09-11T14:40:36.506Z,39.15
2022-09-11T14:41:38.274Z,39.22
2022-09-11T14:42:42.785Z,39.32
2022-09-11T14:43:48.881Z,39.38
2022-09-11T14:44:53.303Z,39.43
2022-09-11T14:45:55.255Z,39.44
2022-09-11T14:46:57.587Z,39.32
2022-09-11T14:48:00.062Z,39.48
2022-09-11T14:49:02.600Z,39.60
2022-09-11T14:50:06.774Z,39.98
2022-09-11T14:51:13.517Z,39.82
2022-09-11T14:52:27.842Z,39.75
2022-09-11T14:53:31.825Z,40.00
2022-09-11T14:54:33.602Z,40.02